コルドバ の空港の天気 - METARとTAF

コルドバ空港 ( SACO / COR ) - アルゼンチン コルドバ州コルドバ
飛行場実況気象(Metar)
観測時間08/25 13:00 ART (08/25 16:00 UTC)
風向・風速南東 3m/s
視程8000m
天気現象
なし
気温22℃
湿度43%
気圧1015hPa
METARSACO 251600Z 13006KT 100V180 8000 NSC 22/09 Q1015 NOSIG
過去の天気等 Google飛行場航空写真 Wunderground天気予報

過去48時間のMETAR

飛行場予報(TAF)
発表時間: 8/25 08:00 ART (8/25 11:00 UTC)
予報対象時間: 25日9時 ART ~ 26日9時 ART
風向・風速不定 2m/s
視程10km以上
全天の8割程度の雲 雲底高度 910m
全天を覆う雲 雲底高度 1830m
25日14時 ART ~ 25日17時 ART に徐々に
風向・風速北東 5m/s 瞬間風速 10m/s
視程8000m
全天の8割程度の雲 雲底高度 910m
25日21時 ART ~ 25日24時 ART に徐々に
風向・風速北 5m/s
視程10km以上
なし
TAF SACO 251100Z 2512/2612 VRB03KT 9999 BKN030 OVC060 TX26/2518Z TN08/2610Z
BECMG 2517/2520 05010G20KT 8000 BKN030
BECMG 2600/2603 36010KT CAVOK